sensor_id;sensor_type;location;lat;lon;timestamp;temperature;humidity
10089;DHT22;51898;49.864;8.550;2022-11-28T00:02:41;5.30;99.90
10089;DHT22;51898;49.864;8.550;2022-11-28T00:05:47;5.30;99.90
10089;DHT22;51898;49.864;8.550;2022-11-28T00:09:07;5.20;99.90
10089;DHT22;51898;49.864;8.550;2022-11-28T00:12:09;5.20;99.90
10089;DHT22;51898;49.864;8.550;2022-11-28T00:15:14;5.20;99.90
10089;DHT22;51898;49.864;8.550;2022-11-28T00:18:27;5.20;99.90
10089;DHT22;51898;49.864;8.550;2022-11-28T00:21:40;5.20;99.90
10089;DHT22;51898;49.864;8.550;2022-11-28T00:24:51;5.20;99.90
10089;DHT22;51898;49.864;8.550;2022-11-28T00:31:23;5.10;99.90
10089;DHT22;51898;49.864;8.550;2022-11-28T00:34:29;5.10;99.90
10089;DHT22;51898;49.864;8.550;2022-11-28T00:37:49;5.10;99.90
10089;DHT22;51898;49.864;8.550;2022-11-28T00:41:03;5.00;99.90
10089;DHT22;51898;49.864;8.550;2022-11-28T00:47:39;5.00;99.90
10089;DHT22;51898;49.864;8.550;2022-11-28T00:51:14;4.80;99.90
10089;DHT22;51898;49.864;8.550;2022-11-28T00:57:46;4.80;99.90
10089;DHT22;51898;49.864;8.550;2022-11-28T01:00:55;4.80;99.90
10089;DHT22;51898;49.864;8.550;2022-11-28T01:04:01;4.80;99.90
10089;DHT22;51898;49.864;8.550;2022-11-28T01:07:27;4.60;99.90
10089;DHT22;51898;49.864;8.550;2022-11-28T01:10:38;4.60;99.90
10089;DHT22;51898;49.864;8.550;2022-11-28T01:13:56;4.60;99.90
10089;DHT22;51898;49.864;8.550;2022-11-28T01:17:11;4.70;99.90
10089;DHT22;51898;49.864;8.550;2022-11-28T01:20:37;4.70;99.90
10089;DHT22;51898;49.864;8.550;2022-11-28T01:23:40;4.60;99.90
10089;DHT22;51898;49.864;8.550;2022-11-28T01:26:57;4.60;99.90
10089;DHT22;51898;49.864;8.550;2022-11-28T01:30:09;4.70;99.90
10089;DHT22;51898;49.864;8.550;2022-11-28T01:33:11;4.70;99.90
10089;DHT22;51898;49.864;8.550;2022-11-28T01:36:23;4.70;99.90
10089;DHT22;51898;49.864;8.550;2022-11-28T01:39:25;4.70;99.90
10089;DHT22;51898;49.864;8.550;2022-11-28T01:42:33;4.70;99.90
10089;DHT22;51898;49.864;8.550;2022-11-28T01:45:39;4.70;99.90
10089;DHT22;51898;49.864;8.550;2022-11-28T01:48:45;4.70;99.90
10089;DHT22;51898;49.864;8.550;2022-11-28T01:52:32;4.70;99.90
10089;DHT22;51898;49.864;8.550;2022-11-28T01:56:18;4.70;99.90
10089;DHT22;51898;49.864;8.550;2022-11-28T01:59:27;4.80;99.90
10089;DHT22;51898;49.864;8.550;2022-11-28T02:02:42;4.80;99.90
10089;DHT22;51898;49.864;8.550;2022-11-28T02:05:48;4.80;99.90
10089;DHT22;51898;49.864;8.550;2022-11-28T02:08:58;4.80;99.90
10089;DHT22;51898;49.864;8.550;2022-11-28T02:16:03;4.80;99.90
10089;DHT22;51898;49.864;8.550;2022-11-28T02:22:57;4.80;99.90
10089;DHT22;51898;49.864;8.550;2022-11-28T02:36:22;4.80;99.90
10089;DHT22;51898;49.864;8.550;2022-11-28T02:39:52;4.70;99.90
10089;DHT22;51898;49.864;8.550;2022-11-28T02:43:39;4.60;99.90
10089;DHT22;51898;49.864;8.550;2022-11-28T02:47:13;4.60;99.90
10089;DHT22;51898;49.864;8.550;2022-11-28T02:50:56;4.70;99.90
10089;DHT22;51898;49.864;8.550;2022-11-28T02:54:03;4.60;99.90
10089;DHT22;51898;49.864;8.550;2022-11-28T02:57:10;4.60;99.90
10089;DHT22;51898;49.864;8.550;2022-11-28T03:00:36;4.60;99.90
10089;DHT22;51898;49.864;8.550;2022-11-28T03:04:31;4.60;99.90
10089;DHT22;51898;49.864;8.550;2022-11-28T03:15:23;4.70;99.90
10089;DHT22;51898;49.864;8.550;2022-11-28T03:18:33;4.70;99.90
10089;DHT22;51898;49.864;8.550;2022-11-28T03:22:47;4.80;99.90
10089;DHT22;51898;49.864;8.550;2022-11-28T03:34:04;4.70;99.90
10089;DHT22;51898;49.864;8.550;2022-11-28T03:37:15;4.70;99.90
10089;DHT22;51898;49.864;8.550;2022-11-28T03:40:24;4.60;99.90
10089;DHT22;51898;49.864;8.550;2022-11-28T03:43:41;4.60;99.90
10089;DHT22;51898;49.864;8.550;2022-11-28T03:48:12;4.60;99.90
10089;DHT22;51898;49.864;8.550;2022-11-28T03:51:56;4.60;99.90
10089;DHT22;51898;49.864;8.550;2022-11-28T03:55:03;4.50;99.90
10089;DHT22;51898;49.864;8.550;2022-11-28T04:14:38;4.50;99.90
10089;DHT22;51898;49.864;8.550;2022-11-28T04:22:38;4.50;99.90
10089;DHT22;51898;49.864;8.550;2022-11-28T04:26:24;4.60;99.90
10089;DHT22;51898;49.864;8.550;2022-11-28T04:30:09;4.70;99.90
10089;DHT22;51898;49.864;8.550;2022-11-28T04:33:28;4.70;99.90
10089;DHT22;51898;49.864;8.550;2022-11-28T04:36:41;4.60;99.90
10089;DHT22;51898;49.864;8.550;2022-11-28T04:40:02;4.60;99.90
10089;DHT22;51898;49.864;8.550;2022-11-28T04:43:39;4.50;99.90
10089;DHT22;51898;49.864;8.550;2022-11-28T04:55:36;4.30;99.90
10089;DHT22;51898;49.864;8.550;2022-11-28T04:59:16;4.30;99.90
10089;DHT22;51898;49.864;8.550;2022-11-28T05:03:03;4.30;99.90
10089;DHT22;51898;49.864;8.550;2022-11-28T05:06:23;4.30;99.90
10089;DHT22;51898;49.864;8.550;2022-11-28T05:09:35;4.30;99.90
10089;DHT22;51898;49.864;8.550;2022-11-28T05:12:38;4.20;99.90
10089;DHT22;51898;49.864;8.550;2022-11-28T05:15:56;4.20;99.90
10089;DHT22;51898;49.864;8.550;2022-11-28T05:25:10;4.20;99.90
10089;DHT22;51898;49.864;8.550;2022-11-28T05:29:47;4.30;99.90
10089;DHT22;51898;49.864;8.550;2022-11-28T05:47:20;4.20;99.90
10089;DHT22;51898;49.864;8.550;2022-11-28T05:59:22;4.30;99.90
10089;DHT22;51898;49.864;8.550;2022-11-28T06:07:49;4.30;99.90
10089;DHT22;51898;49.864;8.550;2022-11-28T06:21:12;4.50;99.90
10089;DHT22;51898;49.864;8.550;2022-11-28T06:30:10;4.50;99.90
10089;DHT22;51898;49.864;8.550;2022-11-28T06:34:17;4.50;99.90
10089;DHT22;51898;49.864;8.550;2022-11-28T06:37:27;4.40;99.90
10089;DHT22;51898;49.864;8.550;2022-11-28T06:41:26;4.40;99.90
10089;DHT22;51898;49.864;8.550;2022-11-28T06:49:43;4.40;99.90
10089;DHT22;51898;49.864;8.550;2022-11-28T07:16:43;4.10;99.90
10089;DHT22;51898;49.864;8.550;2022-11-28T07:20:05;4.10;99.90
10089;DHT22;51898;49.864;8.550;2022-11-28T07:23:19;4.00;99.90
10089;DHT22;51898;49.864;8.550;2022-11-28T07:26:30;4.00;99.90
10089;DHT22;51898;49.864;8.550;2022-11-28T07:33:06;4.00;99.90
10089;DHT22;51898;49.864;8.550;2022-11-28T07:45:42;4.20;99.90
10089;DHT22;51898;49.864;8.550;2022-11-28T07:49:01;4.30;99.90
10089;DHT22;51898;49.864;8.550;2022-11-28T07:52:21;4.40;99.90
10089;DHT22;51898;49.864;8.550;2022-11-28T07:55:59;4.40;99.90
10089;DHT22;51898;49.864;8.550;2022-11-28T07:59:06;4.50;99.90
10089;DHT22;51898;49.864;8.550;2022-11-28T08:02:25;4.60;99.90
10089;DHT22;51898;49.864;8.550;2022-11-28T08:05:38;4.70;99.90
10089;DHT22;51898;49.864;8.550;2022-11-28T08:09:06;4.70;99.90
10089;DHT22;51898;49.864;8.550;2022-11-28T08:12:09;4.70;99.90
10089;DHT22;51898;49.864;8.550;2022-11-28T08:18:36;4.70;99.90
10089;DHT22;51898;49.864;8.550;2022-11-28T08:21:44;4.60;99.90
10089;DHT22;51898;49.864;8.550;2022-11-28T08:29:31;4.80;99.90
10089;DHT22;51898;49.864;8.550;2022-11-28T08:32:50;5.00;99.90
10089;DHT22;51898;49.864;8.550;2022-11-28T08:35:57;5.10;99.90
10089;DHT22;51898;49.864;8.550;2022-11-28T08:39:11;5.10;99.90
10089;DHT22;51898;49.864;8.550;2022-11-28T08:42:28;5.20;99.90
10089;DHT22;51898;49.864;8.550;2022-11-28T08:45:31;5.30;99.90
10089;DHT22;51898;49.864;8.550;2022-11-28T08:48:53;5.40;99.90
10089;DHT22;51898;49.864;8.550;2022-11-28T08:52:04;5.50;99.90
10089;DHT22;51898;49.864;8.550;2022-11-28T08:55:20;5.60;99.90
10089;DHT22;51898;49.864;8.550;2022-11-28T08:58:36;5.70;99.90
10089;DHT22;51898;49.864;8.550;2022-11-28T09:01:49;5.80;99.90
10089;DHT22;51898;49.864;8.550;2022-11-28T09:06:02;5.70;99.90
10089;DHT22;51898;49.864;8.550;2022-11-28T09:09:13;5.80;99.90
10089;DHT22;51898;49.864;8.550;2022-11-28T09:12:15;5.80;99.90
10089;DHT22;51898;49.864;8.550;2022-11-28T09:15:23;5.80;99.90
10089;DHT22;51898;49.864;8.550;2022-11-28T09:18:33;5.90;99.90
10089;DHT22;51898;49.864;8.550;2022-11-28T09:25:34;6.30;99.90
10089;DHT22;51898;49.864;8.550;2022-11-28T09:28:47;6.40;99.90
10089;DHT22;51898;49.864;8.550;2022-11-28T09:31:58;6.50;99.90
10089;DHT22;51898;49.864;8.550;2022-11-28T09:35:23;6.60;99.90
10089;DHT22;51898;49.864;8.550;2022-11-28T09:39:07;6.70;99.90
10089;DHT22;51898;49.864;8.550;2022-11-28T09:42:51;6.80;99.90
10089;DHT22;51898;49.864;8.550;2022-11-28T09:45:53;7.00;99.90
10089;DHT22;51898;49.864;8.550;2022-11-28T09:49:24;6.90;99.90
10089;DHT22;51898;49.864;8.550;2022-11-28T09:56:32;7.00;99.90
10089;DHT22;51898;49.864;8.550;2022-11-28T09:59:34;7.10;99.90
10089;DHT22;51898;49.864;8.550;2022-11-28T10:03:24;7.20;99.90
10089;DHT22;51898;49.864;8.550;2022-11-28T10:06:59;7.30;99.90
10089;DHT22;51898;49.864;8.550;2022-11-28T10:21:20;7.20;99.90
10089;DHT22;51898;49.864;8.550;2022-11-28T10:24:54;7.20;99.90
10089;DHT22;51898;49.864;8.550;2022-11-28T10:27:59;7.30;99.90
10089;DHT22;51898;49.864;8.550;2022-11-28T10:37:50;7.30;99.90
10089;DHT22;51898;49.864;8.550;2022-11-28T10:41:19;7.30;99.90
10089;DHT22;51898;49.864;8.550;2022-11-28T10:44:32;7.40;99.90
10089;DHT22;51898;49.864;8.550;2022-11-28T10:51:44;7.60;99.90
10089;DHT22;51898;49.864;8.550;2022-11-28T10:59:29;7.70;99.90
10089;DHT22;51898;49.864;8.550;2022-11-28T11:02:42;7.50;99.90
10089;DHT22;51898;49.864;8.550;2022-11-28T11:05:45;7.50;99.90
10089;DHT22;51898;49.864;8.550;2022-11-28T11:08:58;7.50;99.90
10089;DHT22;51898;49.864;8.550;2022-11-28T11:12:09;7.50;99.90
10089;DHT22;51898;49.864;8.550;2022-11-28T11:15:24;7.50;99.90
10089;DHT22;51898;49.864;8.550;2022-11-28T11:25:20;8.00;99.90
10089;DHT22;51898;49.864;8.550;2022-11-28T11:28:38;8.10;99.90
10089;DHT22;51898;49.864;8.550;2022-11-28T11:31:43;8.20;99.90
10089;DHT22;51898;49.864;8.550;2022-11-28T11:34:45;8.10;99.90
10089;DHT22;51898;49.864;8.550;2022-11-28T11:37:47;8.10;99.90
10089;DHT22;51898;49.864;8.550;2022-11-28T11:41:30;8.00;99.90
10089;DHT22;51898;49.864;8.550;2022-11-28T11:44:33;8.00;99.90
10089;DHT22;51898;49.864;8.550;2022-11-28T11:48:14;7.90;99.90
10089;DHT22;51898;49.864;8.550;2022-11-28T11:52:14;7.90;99.90
10089;DHT22;51898;49.864;8.550;2022-11-28T11:55:51;8.00;99.90
10089;DHT22;51898;49.864;8.550;2022-11-28T11:59:39;7.90;99.90
10089;DHT22;51898;49.864;8.550;2022-11-28T12:02:55;8.00;99.90
10089;DHT22;51898;49.864;8.550;2022-11-28T12:06:29;7.90;99.90
10089;DHT22;51898;49.864;8.550;2022-11-28T12:09:47;7.90;99.90
10089;DHT22;51898;49.864;8.550;2022-11-28T12:12:50;7.80;99.90
10089;DHT22;51898;49.864;8.550;2022-11-28T12:19:26;7.80;99.90
10089;DHT22;51898;49.864;8.550;2022-11-28T12:22:53;7.80;99.90
10089;DHT22;51898;49.864;8.550;2022-11-28T12:26:08;7.80;99.90
10089;DHT22;51898;49.864;8.550;2022-11-28T12:33:14;7.80;99.90
10089;DHT22;51898;49.864;8.550;2022-11-28T12:47:29;7.80;99.90
10089;DHT22;51898;49.864;8.550;2022-11-28T12:50:38;7.90;99.90
10089;DHT22;51898;49.864;8.550;2022-11-28T12:53:57;7.90;99.90
10089;DHT22;51898;49.864;8.550;2022-11-28T12:57:21;7.90;99.90
10089;DHT22;51898;49.864;8.550;2022-11-28T13:00:27;7.90;99.90
10089;DHT22;51898;49.864;8.550;2022-11-28T13:03:43;7.90;99.90
10089;DHT22;51898;49.864;8.550;2022-11-28T13:07:13;8.00;99.90
10089;DHT22;51898;49.864;8.550;2022-11-28T13:10:27;8.10;99.90
10089;DHT22;51898;49.864;8.550;2022-11-28T13:13:37;8.00;99.90
10089;DHT22;51898;49.864;8.550;2022-11-28T13:16:47;8.00;99.90
10089;DHT22;51898;49.864;8.550;2022-11-28T13:20:10;8.00;99.90
10089;DHT22;51898;49.864;8.550;2022-11-28T13:23:21;8.00;99.90
10089;DHT22;51898;49.864;8.550;2022-11-28T13:26:47;7.90;99.90
10089;DHT22;51898;49.864;8.550;2022-11-28T13:33:43;7.90;99.90
10089;DHT22;51898;49.864;8.550;2022-11-28T13:37:12;7.90;99.90
10089;DHT22;51898;49.864;8.550;2022-11-28T13:41:03;7.90;99.90
10089;DHT22;51898;49.864;8.550;2022-11-28T13:44:22;7.90;99.90
10089;DHT22;51898;49.864;8.550;2022-11-28T13:47:32;7.80;99.90
10089;DHT22;51898;49.864;8.550;2022-11-28T13:50:37;7.90;99.90
10089;DHT22;51898;49.864;8.550;2022-11-28T13:53:44;7.90;99.90
10089;DHT22;51898;49.864;8.550;2022-11-28T13:57:02;7.90;99.90
10089;DHT22;51898;49.864;8.550;2022-11-28T14:03:17;8.00;99.90
10089;DHT22;51898;49.864;8.550;2022-11-28T14:06:22;8.00;99.90
10089;DHT22;51898;49.864;8.550;2022-11-28T14:16:11;8.00;99.90
10089;DHT22;51898;49.864;8.550;2022-11-28T14:26:27;8.00;99.90
10089;DHT22;51898;49.864;8.550;2022-11-28T14:29:37;8.00;99.90
10089;DHT22;51898;49.864;8.550;2022-11-28T14:32:41;8.00;99.90
10089;DHT22;51898;49.864;8.550;2022-11-28T14:39:30;8.00;99.90
10089;DHT22;51898;49.864;8.550;2022-11-28T14:42:34;8.00;99.90
10089;DHT22;51898;49.864;8.550;2022-11-28T14:46:19;8.00;99.90
10089;DHT22;51898;49.864;8.550;2022-11-28T14:49:21;8.00;99.90
10089;DHT22;51898;49.864;8.550;2022-11-28T14:52:26;8.00;99.90
10089;DHT22;51898;49.864;8.550;2022-11-28T14:55:46;8.00;99.90
10089;DHT22;51898;49.864;8.550;2022-11-28T14:58:50;8.10;99.90
10089;DHT22;51898;49.864;8.550;2022-11-28T15:08:36;8.10;99.90
10089;DHT22;51898;49.864;8.550;2022-11-28T15:12:04;8.00;99.90
10089;DHT22;51898;49.864;8.550;2022-11-28T15:15:11;7.90;99.90
10089;DHT22;51898;49.864;8.550;2022-11-28T15:18:18;7.90;99.90
10089;DHT22;51898;49.864;8.550;2022-11-28T15:21:53;7.90;99.90
10089;DHT22;51898;49.864;8.550;2022-11-28T15:24:56;7.80;99.90
10089;DHT22;51898;49.864;8.550;2022-11-28T15:28:12;7.70;99.90
10089;DHT22;51898;49.864;8.550;2022-11-28T15:31:21;7.60;99.90
10089;DHT22;51898;49.864;8.550;2022-11-28T15:34:28;7.60;99.90
10089;DHT22;51898;49.864;8.550;2022-11-28T15:37:32;7.50;99.90
10089;DHT22;51898;49.864;8.550;2022-11-28T15:40:36;7.50;99.90
10089;DHT22;51898;49.864;8.550;2022-11-28T15:43:42;7.50;99.90
10089;DHT22;51898;49.864;8.550;2022-11-28T15:46:45;7.50;99.90
10089;DHT22;51898;49.864;8.550;2022-11-28T15:50:09;7.50;99.90
10089;DHT22;51898;49.864;8.550;2022-11-28T15:53:16;7.50;99.90
10089;DHT22;51898;49.864;8.550;2022-11-28T15:56:18;7.60;99.90
10089;DHT22;51898;49.864;8.550;2022-11-28T15:59:20;7.60;99.90
10089;DHT22;51898;49.864;8.550;2022-11-28T16:02:28;7.50;99.90
10089;DHT22;51898;49.864;8.550;2022-11-28T16:05:32;7.50;99.90
10089;DHT22;51898;49.864;8.550;2022-11-28T16:08:45;7.50;99.90
10089;DHT22;51898;49.864;8.550;2022-11-28T16:11:52;7.60;99.90
10089;DHT22;51898;49.864;8.550;2022-11-28T16:14:55;7.40;99.90
10089;DHT22;51898;49.864;8.550;2022-11-28T16:18:02;7.40;99.90
10089;DHT22;51898;49.864;8.550;2022-11-28T16:21:10;7.50;99.90
10089;DHT22;51898;49.864;8.550;2022-11-28T16:24:28;7.50;99.90
10089;DHT22;51898;49.864;8.550;2022-11-28T16:27:41;7.50;99.90
10089;DHT22;51898;49.864;8.550;2022-11-28T16:30:46;7.50;99.90
10089;DHT22;51898;49.864;8.550;2022-11-28T16:33:49;7.50;99.90
10089;DHT22;51898;49.864;8.550;2022-11-28T16:36:53;7.50;99.90
10089;DHT22;51898;49.864;8.550;2022-11-28T16:40:13;7.50;99.90
10089;DHT22;51898;49.864;8.550;2022-11-28T16:46:35;7.50;99.90
10089;DHT22;51898;49.864;8.550;2022-11-28T16:50:15;7.40;99.90
10089;DHT22;51898;49.864;8.550;2022-11-28T16:56:42;7.40;99.90
10089;DHT22;51898;49.864;8.550;2022-11-28T16:59:49;7.30;99.90
10089;DHT22;51898;49.864;8.550;2022-11-28T17:02:53;7.40;99.90
10089;DHT22;51898;49.864;8.550;2022-11-28T17:05:57;7.40;99.90
10089;DHT22;51898;49.864;8.550;2022-11-28T17:09:00;7.30;99.90
10089;DHT22;51898;49.864;8.550;2022-11-28T17:12:04;7.40;99.90
10089;DHT22;51898;49.864;8.550;2022-11-28T17:15:16;7.40;99.90
10089;DHT22;51898;49.864;8.550;2022-11-28T17:18:19;7.40;99.90
10089;DHT22;51898;49.864;8.550;2022-11-28T17:21:31;7.40;99.90
10089;DHT22;51898;49.864;8.550;2022-11-28T17:24:36;7.30;99.90
10089;DHT22;51898;49.864;8.550;2022-11-28T17:27:38;7.30;99.90
10089;DHT22;51898;49.864;8.550;2022-11-28T17:30:40;7.30;99.90
10089;DHT22;51898;49.864;8.550;2022-11-28T17:33:42;7.30;99.90
10089;DHT22;51898;49.864;8.550;2022-11-28T17:36:45;7.30;99.90
10089;DHT22;51898;49.864;8.550;2022-11-28T17:39:48;7.30;99.90
10089;DHT22;51898;49.864;8.550;2022-11-28T17:43:17;7.30;99.90
10089;DHT22;51898;49.864;8.550;2022-11-28T17:46:19;7.30;99.90
10089;DHT22;51898;49.864;8.550;2022-11-28T17:49:22;7.30;99.90
10089;DHT22;51898;49.864;8.550;2022-11-28T17:52:24;7.30;99.90
10089;DHT22;51898;49.864;8.550;2022-11-28T17:55:30;7.30;99.90
10089;DHT22;51898;49.864;8.550;2022-11-28T17:58:34;7.30;99.90
10089;DHT22;51898;49.864;8.550;2022-11-28T18:01:36;7.20;99.90
10089;DHT22;51898;49.864;8.550;2022-11-28T18:04:38;7.30;99.90
10089;DHT22;51898;49.864;8.550;2022-11-28T18:07:41;7.20;99.90
10089;DHT22;51898;49.864;8.550;2022-11-28T18:10:45;7.10;99.90
10089;DHT22;51898;49.864;8.550;2022-11-28T18:13:57;7.20;99.90
10089;DHT22;51898;49.864;8.550;2022-11-28T18:16:59;7.20;99.90
10089;DHT22;51898;49.864;8.550;2022-11-28T18:23:43;7.00;99.90
10089;DHT22;51898;49.864;8.550;2022-11-28T18:26:45;7.00;99.90
10089;DHT22;51898;49.864;8.550;2022-11-28T18:29:52;6.90;99.90
10089;DHT22;51898;49.864;8.550;2022-11-28T18:32:54;6.90;99.90
10089;DHT22;51898;49.864;8.550;2022-11-28T18:36:07;7.00;99.90
10089;DHT22;51898;49.864;8.550;2022-11-28T18:39:13;7.00;99.90
10089;DHT22;51898;49.864;8.550;2022-11-28T18:42:15;7.00;99.90
10089;DHT22;51898;49.864;8.550;2022-11-28T18:45:19;6.90;99.90
10089;DHT22;51898;49.864;8.550;2022-11-28T18:48:26;6.70;99.90
10089;DHT22;51898;49.864;8.550;2022-11-28T18:51:31;6.80;99.90
10089;DHT22;51898;49.864;8.550;2022-11-28T18:54:33;6.80;99.90
10089;DHT22;51898;49.864;8.550;2022-11-28T18:57:35;6.90;99.90
10089;DHT22;51898;49.864;8.550;2022-11-28T19:00:37;6.90;99.90
10089;DHT22;51898;49.864;8.550;2022-11-28T19:03:40;6.90;99.90
10089;DHT22;51898;49.864;8.550;2022-11-28T19:06:42;6.90;99.90
10089;DHT22;51898;49.864;8.550;2022-11-28T19:09:45;6.90;99.90
10089;DHT22;51898;49.864;8.550;2022-11-28T19:12:47;6.90;99.90
10089;DHT22;51898;49.864;8.550;2022-11-28T19:15:49;6.90;99.90
10089;DHT22;51898;49.864;8.550;2022-11-28T19:18:51;6.90;99.90
10089;DHT22;51898;49.864;8.550;2022-11-28T19:22:05;6.90;99.90
10089;DHT22;51898;49.864;8.550;2022-11-28T19:25:09;6.80;99.90
10089;DHT22;51898;49.864;8.550;2022-11-28T19:28:11;6.80;99.90
10089;DHT22;51898;49.864;8.550;2022-11-28T19:31:22;6.90;99.90
10089;DHT22;51898;49.864;8.550;2022-11-28T19:34:24;7.00;99.90
10089;DHT22;51898;49.864;8.550;2022-11-28T19:37:35;6.80;99.90
10089;DHT22;51898;49.864;8.550;2022-11-28T19:40:45;6.80;99.90
10089;DHT22;51898;49.864;8.550;2022-11-28T19:43:47;6.90;99.90
10089;DHT22;51898;49.864;8.550;2022-11-28T19:46:49;6.90;99.90
10089;DHT22;51898;49.864;8.550;2022-11-28T19:49:51;6.90;99.90
10089;DHT22;51898;49.864;8.550;2022-11-28T19:52:59;7.00;99.90
10089;DHT22;51898;49.864;8.550;2022-11-28T19:56:07;7.00;99.90
10089;DHT22;51898;49.864;8.550;2022-11-28T19:59:12;7.00;99.90
10089;DHT22;51898;49.864;8.550;2022-11-28T20:02:14;7.00;99.90
10089;DHT22;51898;49.864;8.550;2022-11-28T20:05:16;6.90;99.90
10089;DHT22;51898;49.864;8.550;2022-11-28T20:08:18;7.00;99.90
10089;DHT22;51898;49.864;8.550;2022-11-28T20:11:22;7.00;99.90
10089;DHT22;51898;49.864;8.550;2022-11-28T20:14:24;7.10;99.90
10089;DHT22;51898;49.864;8.550;2022-11-28T20:17:28;7.10;99.90
10089;DHT22;51898;49.864;8.550;2022-11-28T20:20:31;7.10;99.90
10089;DHT22;51898;49.864;8.550;2022-11-28T20:23:43;7.10;99.90
10089;DHT22;51898;49.864;8.550;2022-11-28T20:26:45;7.20;99.90
10089;DHT22;51898;49.864;8.550;2022-11-28T20:29:47;7.20;99.90
10089;DHT22;51898;49.864;8.550;2022-11-28T20:32:48;7.20;99.90
10089;DHT22;51898;49.864;8.550;2022-11-28T20:35:50;7.20;99.90
10089;DHT22;51898;49.864;8.550;2022-11-28T20:39:00;7.20;99.90
10089;DHT22;51898;49.864;8.550;2022-11-28T20:42:01;7.20;99.90
10089;DHT22;51898;49.864;8.550;2022-11-28T20:45:03;7.20;99.90
10089;DHT22;51898;49.864;8.550;2022-11-28T20:48:05;7.30;99.90
10089;DHT22;51898;49.864;8.550;2022-11-28T20:51:13;7.30;99.90
10089;DHT22;51898;49.864;8.550;2022-11-28T20:54:15;7.30;99.90
10089;DHT22;51898;49.864;8.550;2022-11-28T20:57:17;7.30;99.90
10089;DHT22;51898;49.864;8.550;2022-11-28T21:00:22;7.20;99.90
10089;DHT22;51898;49.864;8.550;2022-11-28T21:03:27;7.10;99.90
10089;DHT22;51898;49.864;8.550;2022-11-28T21:06:29;7.00;99.90
10089;DHT22;51898;49.864;8.550;2022-11-28T21:09:30;7.00;99.90
10089;DHT22;51898;49.864;8.550;2022-11-28T21:12:32;7.00;99.90
10089;DHT22;51898;49.864;8.550;2022-11-28T21:15:41;7.10;99.90
10089;DHT22;51898;49.864;8.550;2022-11-28T21:18:44;7.10;99.90
10089;DHT22;51898;49.864;8.550;2022-11-28T21:21:46;7.20;99.90
10089;DHT22;51898;49.864;8.550;2022-11-28T21:24:48;7.20;99.90
10089;DHT22;51898;49.864;8.550;2022-11-28T21:27:51;7.20;99.90
10089;DHT22;51898;49.864;8.550;2022-11-28T21:30:53;7.30;99.90
10089;DHT22;51898;49.864;8.550;2022-11-28T21:33:56;7.30;99.90
10089;DHT22;51898;49.864;8.550;2022-11-28T21:36:59;7.30;99.90
10089;DHT22;51898;49.864;8.550;2022-11-28T21:40:00;7.30;99.90
10089;DHT22;51898;49.864;8.550;2022-11-28T21:43:02;7.40;99.90
10089;DHT22;51898;49.864;8.550;2022-11-28T21:46:05;7.50;99.90
10089;DHT22;51898;49.864;8.550;2022-11-28T21:49:10;7.40;99.90
10089;DHT22;51898;49.864;8.550;2022-11-28T21:52:12;7.40;99.90
10089;DHT22;51898;49.864;8.550;2022-11-28T21:55:13;7.30;99.90
10089;DHT22;51898;49.864;8.550;2022-11-28T21:58:15;7.30;99.90
10089;DHT22;51898;49.864;8.550;2022-11-28T22:01:17;7.30;99.90
10089;DHT22;51898;49.864;8.550;2022-11-28T22:04:20;7.40;99.90
10089;DHT22;51898;49.864;8.550;2022-11-28T22:07:22;7.30;99.90
10089;DHT22;51898;49.864;8.550;2022-11-28T22:10:24;7.30;99.90
10089;DHT22;51898;49.864;8.550;2022-11-28T22:13:26;7.40;99.90
10089;DHT22;51898;49.864;8.550;2022-11-28T22:16:28;7.40;99.90
10089;DHT22;51898;49.864;8.550;2022-11-28T22:19:30;7.40;99.90
10089;DHT22;51898;49.864;8.550;2022-11-28T22:22:32;7.30;99.90
10089;DHT22;51898;49.864;8.550;2022-11-28T22:25:34;7.30;99.90
10089;DHT22;51898;49.864;8.550;2022-11-28T22:28:36;7.20;99.90
10089;DHT22;51898;49.864;8.550;2022-11-28T22:31:38;7.20;99.90
10089;DHT22;51898;49.864;8.550;2022-11-28T22:34:39;7.10;99.90
10089;DHT22;51898;49.864;8.550;2022-11-28T22:37:42;7.00;99.90
10089;DHT22;51898;49.864;8.550;2022-11-28T22:40:44;7.10;99.90
10089;DHT22;51898;49.864;8.550;2022-11-28T22:43:46;7.10;99.90
10089;DHT22;51898;49.864;8.550;2022-11-28T22:46:48;7.20;99.90
10089;DHT22;51898;49.864;8.550;2022-11-28T22:49:52;7.20;99.90
10089;DHT22;51898;49.864;8.550;2022-11-28T22:52:54;7.10;99.90
10089;DHT22;51898;49.864;8.550;2022-11-28T22:55:55;7.20;99.90
10089;DHT22;51898;49.864;8.550;2022-11-28T22:58:58;7.20;99.90
10089;DHT22;51898;49.864;8.550;2022-11-28T23:02:00;7.20;99.90
10089;DHT22;51898;49.864;8.550;2022-11-28T23:05:03;7.20;99.90
10089;DHT22;51898;49.864;8.550;2022-11-28T23:08:05;7.20;99.90
10089;DHT22;51898;49.864;8.550;2022-11-28T23:11:13;7.30;99.90
10089;DHT22;51898;49.864;8.550;2022-11-28T23:14:31;7.40;99.90
10089;DHT22;51898;49.864;8.550;2022-11-28T23:17:33;7.40;99.90
10089;DHT22;51898;49.864;8.550;2022-11-28T23:20:39;7.40;99.90
10089;DHT22;51898;49.864;8.550;2022-11-28T23:23:51;7.50;99.90
10089;DHT22;51898;49.864;8.550;2022-11-28T23:26:53;7.60;99.90
10089;DHT22;51898;49.864;8.550;2022-11-28T23:29:55;7.60;99.90
10089;DHT22;51898;49.864;8.550;2022-11-28T23:32:57;7.60;99.90
10089;DHT22;51898;49.864;8.550;2022-11-28T23:35:59;7.60;99.90
10089;DHT22;51898;49.864;8.550;2022-11-28T23:39:26;7.70;99.90
10089;DHT22;51898;49.864;8.550;2022-11-28T23:42:31;7.70;99.90
10089;DHT22;51898;49.864;8.550;2022-11-28T23:45:33;7.60;99.90
10089;DHT22;51898;49.864;8.550;2022-11-28T23:53:24;7.60;99.90
10089;DHT22;51898;49.864;8.550;2022-11-28T23:56:28;7.50;99.90
10089;DHT22;51898;49.864;8.550;2022-11-28T23:59:30;7.60;99.90
